sensor_id;sensor_type;location;lat;lon;timestamp;pressure;altitude;pressure_sealevel;temperature;humidity
36980;BME280;22891;50.562;7.272;2022-10-31T00:00:49;100744.00;;;10.52;nan
36980;BME280;22891;50.562;7.272;2022-10-31T00:03:16;100740.00;;;10.56;nan
36980;BME280;22891;50.562;7.272;2022-10-31T00:05:44;100748.00;;;10.29;nan
36980;BME280;22891;50.562;7.272;2022-10-31T00:08:11;100742.00;;;10.22;nan
36980;BME280;22891;50.562;7.272;2022-10-31T00:10:42;100737.00;;;10.40;nan
36980;BME280;22891;50.562;7.272;2022-10-31T00:13:09;100735.00;;;10.37;nan
36980;BME280;22891;50.562;7.272;2022-10-31T00:15:37;100746.00;;;10.50;nan
36980;BME280;22891;50.562;7.272;2022-10-31T00:18:04;100752.00;;;10.28;nan
36980;BME280;22891;50.562;7.272;2022-10-31T00:20:31;100757.00;;;10.38;nan
36980;BME280;22891;50.562;7.272;2022-10-31T00:23:00;100759.00;;;10.45;nan
36980;BME280;22891;50.562;7.272;2022-10-31T00:25:27;100758.00;;;10.35;nan
36980;BME280;22891;50.562;7.272;2022-10-31T00:27:53;100765.00;;;10.14;nan
36980;BME280;22891;50.562;7.272;2022-10-31T00:30:19;100763.00;;;10.26;nan
36980;BME280;22891;50.562;7.272;2022-10-31T00:32:45;100758.00;;;10.13;nan
36980;BME280;22891;50.562;7.272;2022-10-31T00:35:10;100762.00;;;10.06;nan
36980;BME280;22891;50.562;7.272;2022-10-31T00:37:36;100761.00;;;9.86;nan
36980;BME280;22891;50.562;7.272;2022-10-31T00:40:02;100748.00;;;9.81;nan
36980;BME280;22891;50.562;7.272;2022-10-31T00:42:28;100737.00;;;9.94;nan
36980;BME280;22891;50.562;7.272;2022-10-31T00:44:54;100726.00;;;10.01;nan
36980;BME280;22891;50.562;7.272;2022-10-31T00:47:20;100724.00;;;10.13;nan
36980;BME280;22891;50.562;7.272;2022-10-31T00:49:46;100721.00;;;10.03;nan
36980;BME280;22891;50.562;7.272;2022-10-31T00:52:12;100729.00;;;10.17;nan
36980;BME280;22891;50.562;7.272;2022-10-31T00:54:51;100731.00;;;10.19;nan
36980;BME280;22891;50.562;7.272;2022-10-31T00:57:16;100740.00;;;10.40;nan
36980;BME280;22891;50.562;7.272;2022-10-31T00:59:43;100736.00;;;10.25;nan
36980;BME280;22891;50.562;7.272;2022-10-31T01:02:09;100740.00;;;10.03;nan
36980;BME280;22891;50.562;7.272;2022-10-31T01:04:34;100739.00;;;9.84;nan
36980;BME280;22891;50.562;7.272;2022-10-31T01:07:01;100739.00;;;10.01;nan
36980;BME280;22891;50.562;7.272;2022-10-31T01:09:27;100735.00;;;10.10;nan
36980;BME280;22891;50.562;7.272;2022-10-31T01:11:53;100736.00;;;10.00;nan
36980;BME280;22891;50.562;7.272;2022-10-31T01:14:19;100725.00;;;9.98;nan
36980;BME280;22891;50.562;7.272;2022-10-31T01:16:44;100733.00;;;9.88;nan
36980;BME280;22891;50.562;7.272;2022-10-31T01:19:10;100719.00;;;9.86;nan
36980;BME280;22891;50.562;7.272;2022-10-31T01:21:36;100714.00;;;9.89;nan
36980;BME280;22891;50.562;7.272;2022-10-31T01:24:01;100698.00;;;9.99;nan
36980;BME280;22891;50.562;7.272;2022-10-31T01:26:30;100703.00;;;10.08;nan
36980;BME280;22891;50.562;7.272;2022-10-31T01:29:02;100696.00;;;10.07;nan
36980;BME280;22891;50.562;7.272;2022-10-31T01:31:31;100691.00;;;10.17;nan
36980;BME280;22891;50.562;7.272;2022-10-31T01:33:58;100691.00;;;10.06;nan
36980;BME280;22891;50.562;7.272;2022-10-31T01:36:30;100692.00;;;10.04;nan
36980;BME280;22891;50.562;7.272;2022-10-31T01:38:59;100693.00;;;9.99;nan
36980;BME280;22891;50.562;7.272;2022-10-31T01:41:28;100691.00;;;9.92;nan
36980;BME280;22891;50.562;7.272;2022-10-31T01:43:59;100684.00;;;10.03;nan
36980;BME280;22891;50.562;7.272;2022-10-31T01:46:36;100687.00;;;10.11;nan
36980;BME280;22891;50.562;7.272;2022-10-31T01:49:33;100682.00;;;10.11;nan
36980;BME280;22891;50.562;7.272;2022-10-31T01:52:05;100681.00;;;10.14;nan
36980;BME280;22891;50.562;7.272;2022-10-31T01:54:37;100698.00;;;10.02;nan
36980;BME280;22891;50.562;7.272;2022-10-31T01:57:07;100695.00;;;10.00;nan
36980;BME280;22891;50.562;7.272;2022-10-31T01:59:36;100699.00;;;9.99;nan
36980;BME280;22891;50.562;7.272;2022-10-31T02:02:04;100692.00;;;10.08;nan
36980;BME280;22891;50.562;7.272;2022-10-31T02:04:31;100693.00;;;9.86;nan
36980;BME280;22891;50.562;7.272;2022-10-31T02:07:10;100696.00;;;9.82;nan
36980;BME280;22891;50.562;7.272;2022-10-31T02:09:39;100676.00;;;9.79;nan
36980;BME280;22891;50.562;7.272;2022-10-31T02:12:06;100678.00;;;9.77;nan
36980;BME280;22891;50.562;7.272;2022-10-31T02:14:35;100687.00;;;9.62;nan
36980;BME280;22891;50.562;7.272;2022-10-31T02:17:03;100683.00;;;9.55;nan
36980;BME280;22891;50.562;7.272;2022-10-31T02:22:43;100683.00;;;9.83;nan
36980;BME280;22891;50.562;7.272;2022-10-31T02:42:30;100663.00;;;9.46;nan
36980;BME280;22891;50.562;7.272;2022-10-31T02:45:07;100676.00;;;9.50;nan
36980;BME280;22891;50.562;7.272;2022-10-31T02:47:38;100675.00;;;9.55;nan
36980;BME280;22891;50.562;7.272;2022-10-31T02:50:14;100673.00;;;9.68;nan
36980;BME280;22891;50.562;7.272;2022-10-31T02:52:43;100681.00;;;9.73;nan
36980;BME280;22891;50.562;7.272;2022-10-31T02:55:44;100670.00;;;9.63;nan
36980;BME280;22891;50.562;7.272;2022-10-31T02:58:17;100665.00;;;9.69;nan
36980;BME280;22891;50.562;7.272;2022-10-31T03:00:57;100667.00;;;9.56;nan
36980;BME280;22891;50.562;7.272;2022-10-31T03:11:08;100663.00;;;9.62;nan
36980;BME280;22891;50.562;7.272;2022-10-31T03:15:30;100659.00;;;9.58;nan
36980;BME280;22891;50.562;7.272;2022-10-31T03:19:11;100659.00;;;9.42;nan
36980;BME280;22891;50.562;7.272;2022-10-31T03:21:45;100659.00;;;9.40;nan
36980;BME280;22891;50.562;7.272;2022-10-31T03:24:14;100662.00;;;9.58;nan
36980;BME280;22891;50.562;7.272;2022-10-31T03:26:47;100663.00;;;9.46;nan
36980;BME280;22891;50.562;7.272;2022-10-31T03:29:17;100669.00;;;9.56;nan
36980;BME280;22891;50.562;7.272;2022-10-31T03:31:59;100658.00;;;9.59;nan
36980;BME280;22891;50.562;7.272;2022-10-31T03:34:27;100665.00;;;9.47;nan
36980;BME280;22891;50.562;7.272;2022-10-31T03:36:56;100656.00;;;9.36;nan
36980;BME280;22891;50.562;7.272;2022-10-31T03:39:23;100656.00;;;9.37;nan
36980;BME280;22891;50.562;7.272;2022-10-31T03:41:55;100656.00;;;9.51;nan
36980;BME280;22891;50.562;7.272;2022-10-31T03:44:23;100664.00;;;9.53;nan
36980;BME280;22891;50.562;7.272;2022-10-31T03:46:50;100663.00;;;9.54;nan
36980;BME280;22891;50.562;7.272;2022-10-31T03:49:16;100660.00;;;9.47;nan
36980;BME280;22891;50.562;7.272;2022-10-31T03:52:44;100662.00;;;9.33;nan
36980;BME280;22891;50.562;7.272;2022-10-31T03:57:07;100660.00;;;9.12;nan
36980;BME280;22891;50.562;7.272;2022-10-31T03:59:41;100662.00;;;9.11;nan
36980;BME280;22891;50.562;7.272;2022-10-31T04:02:12;100658.00;;;9.26;nan
36980;BME280;22891;50.562;7.272;2022-10-31T04:04:39;100657.00;;;9.36;nan
36980;BME280;22891;50.562;7.272;2022-10-31T04:07:06;100659.00;;;9.28;nan
36980;BME280;22891;50.562;7.272;2022-10-31T04:09:36;100666.00;;;9.13;nan
36980;BME280;22891;50.562;7.272;2022-10-31T04:12:06;100668.00;;;9.14;nan
36980;BME280;22891;50.562;7.272;2022-10-31T04:14:37;100660.00;;;9.14;nan
36980;BME280;22891;50.562;7.272;2022-10-31T04:17:05;100667.00;;;8.98;nan
36980;BME280;22891;50.562;7.272;2022-10-31T04:19:33;100653.00;;;9.11;nan
36980;BME280;22891;50.562;7.272;2022-10-31T04:21:59;100656.00;;;9.12;nan
36980;BME280;22891;50.562;7.272;2022-10-31T04:24:25;100662.00;;;9.17;nan
36980;BME280;22891;50.562;7.272;2022-10-31T04:26:51;100655.00;;;9.10;nan
36980;BME280;22891;50.562;7.272;2022-10-31T04:29:17;100649.00;;;9.09;nan
36980;BME280;22891;50.562;7.272;2022-10-31T04:31:43;100644.00;;;9.01;nan
36980;BME280;22891;50.562;7.272;2022-10-31T04:34:08;100638.00;;;9.06;nan
36980;BME280;22891;50.562;7.272;2022-10-31T04:36:34;100638.00;;;9.13;nan
36980;BME280;22891;50.562;7.272;2022-10-31T04:39:00;100637.00;;;9.10;nan
36980;BME280;22891;50.562;7.272;2022-10-31T04:41:26;100636.00;;;9.15;nan
36980;BME280;22891;50.562;7.272;2022-10-31T04:43:52;100637.00;;;9.11;nan
36980;BME280;22891;50.562;7.272;2022-10-31T04:46:18;100631.00;;;9.22;nan
36980;BME280;22891;50.562;7.272;2022-10-31T04:48:44;100641.00;;;9.14;nan
36980;BME280;22891;50.562;7.272;2022-10-31T04:51:10;100654.00;;;9.01;nan
36980;BME280;22891;50.562;7.272;2022-10-31T04:53:35;100653.00;;;8.97;nan
36980;BME280;22891;50.562;7.272;2022-10-31T04:56:01;100654.00;;;8.84;nan
36980;BME280;22891;50.562;7.272;2022-10-31T04:58:27;100658.00;;;8.80;nan
36980;BME280;22891;50.562;7.272;2022-10-31T05:00:55;100646.00;;;8.69;nan
36980;BME280;22891;50.562;7.272;2022-10-31T05:03:21;100634.00;;;8.67;nan
36980;BME280;22891;50.562;7.272;2022-10-31T05:05:47;100626.00;;;8.63;nan
36980;BME280;22891;50.562;7.272;2022-10-31T05:08:14;100607.00;;;8.74;nan
36980;BME280;22891;50.562;7.272;2022-10-31T05:10:40;100611.00;;;8.73;nan
36980;BME280;22891;50.562;7.272;2022-10-31T05:13:06;100596.00;;;8.90;nan
36980;BME280;22891;50.562;7.272;2022-10-31T05:15:32;100601.00;;;9.05;nan
36980;BME280;22891;50.562;7.272;2022-10-31T05:17:58;100599.00;;;9.10;nan
36980;BME280;22891;50.562;7.272;2022-10-31T05:20:26;100597.00;;;9.06;nan
36980;BME280;22891;50.562;7.272;2022-10-31T05:22:54;100608.00;;;9.29;nan
36980;BME280;22891;50.562;7.272;2022-10-31T05:25:22;100602.00;;;9.24;nan
36980;BME280;22891;50.562;7.272;2022-10-31T05:27:50;100600.00;;;9.33;nan
36980;BME280;22891;50.562;7.272;2022-10-31T05:30:25;100596.00;;;9.23;nan
36980;BME280;22891;50.562;7.272;2022-10-31T05:32:52;100596.00;;;9.29;nan
36980;BME280;22891;50.562;7.272;2022-10-31T05:35:23;100608.00;;;9.48;nan
36980;BME280;22891;50.562;7.272;2022-10-31T05:37:50;100598.00;;;9.46;nan
36980;BME280;22891;50.562;7.272;2022-10-31T05:40:17;100604.00;;;9.29;nan
36980;BME280;22891;50.562;7.272;2022-10-31T05:42:44;100597.00;;;9.28;nan
36980;BME280;22891;50.562;7.272;2022-10-31T05:45:13;100592.00;;;9.15;nan
36980;BME280;22891;50.562;7.272;2022-10-31T05:47:39;100577.00;;;9.29;nan
36980;BME280;22891;50.562;7.272;2022-10-31T05:50:07;100557.00;;;9.32;nan
36980;BME280;22891;50.562;7.272;2022-10-31T05:52:34;100548.00;;;9.33;nan
36980;BME280;22891;50.562;7.272;2022-10-31T05:55:00;100550.00;;;9.37;nan
36980;BME280;22891;50.562;7.272;2022-10-31T05:57:26;100547.00;;;9.49;nan
36980;BME280;22891;50.562;7.272;2022-10-31T05:59:54;100544.00;;;9.60;nan
36980;BME280;22891;50.562;7.272;2022-10-31T06:02:20;100538.00;;;9.65;nan
36980;BME280;22891;50.562;7.272;2022-10-31T06:04:47;100536.00;;;9.70;nan
36980;BME280;22891;50.562;7.272;2022-10-31T06:07:12;100522.00;;;9.78;nan
36980;BME280;22891;50.562;7.272;2022-10-31T06:09:38;100516.00;;;9.90;nan
36980;BME280;22891;50.562;7.272;2022-10-31T06:12:04;100523.00;;;9.91;nan
36980;BME280;22891;50.562;7.272;2022-10-31T06:14:30;100532.00;;;9.87;nan
36980;BME280;22891;50.562;7.272;2022-10-31T06:16:56;100541.00;;;9.78;nan
36980;BME280;22891;50.562;7.272;2022-10-31T06:19:22;100542.00;;;9.77;nan
36980;BME280;22891;50.562;7.272;2022-10-31T06:21:48;100537.00;;;9.74;nan
36980;BME280;22891;50.562;7.272;2022-10-31T06:24:14;100532.00;;;9.67;nan
36980;BME280;22891;50.562;7.272;2022-10-31T06:26:41;100534.00;;;9.66;nan
36980;BME280;22891;50.562;7.272;2022-10-31T06:29:07;100523.00;;;9.63;nan
36980;BME280;22891;50.562;7.272;2022-10-31T06:31:32;100520.00;;;9.67;nan
36980;BME280;22891;50.562;7.272;2022-10-31T06:33:58;100507.00;;;9.75;nan
36980;BME280;22891;50.562;7.272;2022-10-31T06:36:24;100501.00;;;9.81;nan
36980;BME280;22891;50.562;7.272;2022-10-31T06:38:51;100520.00;;;9.82;nan
36980;BME280;22891;50.562;7.272;2022-10-31T06:41:16;100513.00;;;9.90;nan
36980;BME280;22891;50.562;7.272;2022-10-31T06:43:45;100510.00;;;9.93;nan
36980;BME280;22891;50.562;7.272;2022-10-31T06:46:11;100510.00;;;9.95;nan
36980;BME280;22891;50.562;7.272;2022-10-31T06:48:37;100513.00;;;9.92;nan
36980;BME280;22891;50.562;7.272;2022-10-31T06:51:02;100519.00;;;10.02;nan
36980;BME280;22891;50.562;7.272;2022-10-31T06:53:29;100516.00;;;10.11;nan
36980;BME280;22891;50.562;7.272;2022-10-31T06:55:56;100512.00;;;10.19;nan
36980;BME280;22891;50.562;7.272;2022-10-31T06:58:22;100509.00;;;10.32;nan
36980;BME280;22891;50.562;7.272;2022-10-31T07:00:48;100510.00;;;10.31;nan
36980;BME280;22891;50.562;7.272;2022-10-31T07:03:14;100511.00;;;10.36;nan
36980;BME280;22891;50.562;7.272;2022-10-31T07:05:41;100513.00;;;10.33;nan
36980;BME280;22891;50.562;7.272;2022-10-31T07:08:10;100510.00;;;10.50;nan
36980;BME280;22891;50.562;7.272;2022-10-31T07:13:05;100485.00;;;11.46;nan
36980;BME280;22891;50.562;7.272;2022-10-31T07:23:24;100540.00;;;13.30;nan
36980;BME280;22891;50.562;7.272;2022-10-31T07:25:57;100553.00;;;13.36;nan
36980;BME280;22891;50.562;7.272;2022-10-31T07:28:25;100578.00;;;13.62;nan
36980;BME280;22891;50.562;7.272;2022-10-31T07:31:54;100621.00;;;12.42;nan
36980;BME280;22891;50.562;7.272;2022-10-31T07:37:08;100587.00;;;11.67;nan
36980;BME280;22891;50.562;7.272;2022-10-31T07:39:33;100587.00;;;11.67;nan
36980;BME280;22891;50.562;7.272;2022-10-31T07:41:59;100608.00;;;11.51;nan
36980;BME280;22891;50.562;7.272;2022-10-31T07:44:26;100602.00;;;11.50;nan
36980;BME280;22891;50.562;7.272;2022-10-31T07:46:52;100597.00;;;11.57;nan
36980;BME280;22891;50.562;7.272;2022-10-31T07:49:18;100600.00;;;11.53;nan
36980;BME280;22891;50.562;7.272;2022-10-31T07:51:46;100595.00;;;11.43;nan
36980;BME280;22891;50.562;7.272;2022-10-31T07:59:04;100595.00;;;11.88;nan
36980;BME280;22891;50.562;7.272;2022-10-31T08:01:30;100592.00;;;11.92;nan
36980;BME280;22891;50.562;7.272;2022-10-31T08:11:45;100590.00;;;12.00;nan
36980;BME280;22891;50.562;7.272;2022-10-31T08:14:11;100599.00;;;11.90;nan
36980;BME280;22891;50.562;7.272;2022-10-31T08:16:37;100605.00;;;11.78;nan
36980;BME280;22891;50.562;7.272;2022-10-31T08:19:03;100589.00;;;11.76;nan
36980;BME280;22891;50.562;7.272;2022-10-31T08:36:38;100585.00;;;12.47;nan
36980;BME280;22891;50.562;7.272;2022-10-31T08:41:38;100599.00;;;12.79;nan
36980;BME280;22891;50.562;7.272;2022-10-31T08:46:29;100607.00;;;12.52;nan
36980;BME280;22891;50.562;7.272;2022-10-31T08:48:56;100614.00;;;12.53;nan
36980;BME280;22891;50.562;7.272;2022-10-31T08:52:39;100614.00;;;12.49;nan
36980;BME280;22891;50.562;7.272;2022-10-31T08:55:06;100614.00;;;12.49;nan
36980;BME280;22891;50.562;7.272;2022-10-31T08:57:32;100617.00;;;12.72;nan
36980;BME280;22891;50.562;7.272;2022-10-31T08:59:58;100623.00;;;12.84;nan
36980;BME280;22891;50.562;7.272;2022-10-31T09:02:23;100631.00;;;12.86;nan
36980;BME280;22891;50.562;7.272;2022-10-31T09:04:49;100625.00;;;13.18;nan
36980;BME280;22891;50.562;7.272;2022-10-31T09:15:05;100677.00;;;13.12;nan
36980;BME280;22891;50.562;7.272;2022-10-31T09:17:32;100708.00;;;13.18;nan
36980;BME280;22891;50.562;7.272;2022-10-31T09:43:03;100905.00;;;14.20;nan
36980;BME280;22891;50.562;7.272;2022-10-31T09:55:42;101039.00;;;14.85;nan
36980;BME280;22891;50.562;7.272;2022-10-31T09:58:51;101039.00;;;14.85;nan
36980;BME280;22891;50.562;7.272;2022-10-31T10:01:49;101039.00;;;14.85;nan
36980;BME280;22891;50.562;7.272;2022-10-31T10:19:31;101295.00;;;15.69;nan
36980;BME280;22891;50.562;7.272;2022-10-31T11:00:28;101340.00;;;16.19;nan
36980;BME280;22891;50.562;7.272;2022-10-31T11:02:55;101346.00;;;16.10;nan
36980;BME280;22891;50.562;7.272;2022-10-31T11:05:44;101332.00;;;16.27;nan
36980;BME280;22891;50.562;7.272;2022-10-31T11:08:31;101321.00;;;15.82;nan
36980;BME280;22891;50.562;7.272;2022-10-31T11:13:28;101316.00;;;16.08;nan
36980;BME280;22891;50.562;7.272;2022-10-31T11:23:30;101315.00;;;16.29;nan
36980;BME280;22891;50.562;7.272;2022-10-31T11:31:05;101310.00;;;16.20;nan
36980;BME280;22891;50.562;7.272;2022-10-31T11:44:25;101304.00;;;16.42;nan
36980;BME280;22891;50.562;7.272;2022-10-31T11:46:55;101301.00;;;16.20;nan
36980;BME280;22891;50.562;7.272;2022-10-31T12:17:36;101240.00;;;16.87;nan
36980;BME280;22891;50.562;7.272;2022-10-31T13:58:19;101058.00;;;16.60;nan
36980;BME280;22891;50.562;7.272;2022-10-31T14:19:01;101035.00;;;17.10;nan
36980;BME280;22891;50.562;7.272;2022-10-31T14:21:39;101035.00;;;17.23;nan
36980;BME280;22891;50.562;7.272;2022-10-31T14:56:30;101009.00;;;17.80;nan
36980;BME280;22891;50.562;7.272;2022-10-31T14:59:48;100999.00;;;17.72;nan
36980;BME280;22891;50.562;7.272;2022-10-31T15:14:56;100966.00;;;17.26;nan
36980;BME280;22891;50.562;7.272;2022-10-31T15:22:23;100957.00;;;17.24;nan
36980;BME280;22891;50.562;7.272;2022-10-31T15:32:38;100959.00;;;16.74;nan
36980;BME280;22891;50.562;7.272;2022-10-31T15:35:10;100926.00;;;16.63;nan
36980;BME280;22891;50.562;7.272;2022-10-31T15:45:30;100933.00;;;16.71;nan
36980;BME280;22891;50.562;7.272;2022-10-31T15:48:01;100930.00;;;16.82;nan
36980;BME280;22891;50.562;7.272;2022-10-31T15:51:28;100932.00;;;16.56;nan
36980;BME280;22891;50.562;7.272;2022-10-31T15:53:55;100932.00;;;16.56;nan
36980;BME280;22891;50.562;7.272;2022-10-31T15:56:28;100916.00;;;16.25;nan
36980;BME280;22891;50.562;7.272;2022-10-31T16:03:40;100885.00;;;16.19;nan
36980;BME280;22891;50.562;7.272;2022-10-31T16:08:47;100780.00;;;15.75;nan
36980;BME280;22891;50.562;7.272;2022-10-31T16:14:27;100831.00;;;15.93;nan
36980;BME280;22891;50.562;7.272;2022-10-31T16:16:56;100797.00;;;16.11;nan
36980;BME280;22891;50.562;7.272;2022-10-31T16:19:31;100835.00;;;16.36;nan
36980;BME280;22891;50.562;7.272;2022-10-31T16:22:10;100851.00;;;16.89;nan
36980;BME280;22891;50.562;7.272;2022-10-31T16:30:53;100791.00;;;16.91;nan
36980;BME280;22891;50.562;7.272;2022-10-31T16:33:38;100889.00;;;17.28;nan
36980;BME280;22891;50.562;7.272;2022-10-31T16:36:31;100906.00;;;17.38;nan
36980;BME280;22891;50.562;7.272;2022-10-31T16:38:58;100903.00;;;17.39;nan
36980;BME280;22891;50.562;7.272;2022-10-31T16:41:29;100904.00;;;17.51;nan
36980;BME280;22891;50.562;7.272;2022-10-31T16:43:56;100904.00;;;17.51;nan
36980;BME280;22891;50.562;7.272;2022-10-31T16:46:24;100901.00;;;17.38;nan
36980;BME280;22891;50.562;7.272;2022-10-31T17:02:15;100849.00;;;15.23;nan
36980;BME280;22891;50.562;7.272;2022-10-31T17:04:41;100800.00;;;15.07;nan
36980;BME280;22891;50.562;7.272;2022-10-31T17:09:34;100759.00;;;14.53;nan
36980;BME280;22891;50.562;7.272;2022-10-31T17:12:00;100730.00;;;14.29;nan
36980;BME280;22891;50.562;7.272;2022-10-31T17:19:18;100608.00;;;13.49;nan
36980;BME280;22891;50.562;7.272;2022-10-31T17:21:45;100608.00;;;13.49;nan
36980;BME280;22891;50.562;7.272;2022-10-31T17:24:13;100563.00;;;13.73;nan
36980;BME280;22891;50.562;7.272;2022-10-31T17:26:40;100562.00;;;13.67;nan
36980;BME280;22891;50.562;7.272;2022-10-31T17:29:06;100542.00;;;13.50;nan
36980;BME280;22891;50.562;7.272;2022-10-31T17:31:34;100519.00;;;13.30;nan
36980;BME280;22891;50.562;7.272;2022-10-31T17:35:35;100493.00;;;13.30;nan
36980;BME280;22891;50.562;7.272;2022-10-31T17:45:21;100473.00;;;13.31;nan
36980;BME280;22891;50.562;7.272;2022-10-31T17:47:48;100467.00;;;13.24;nan
36980;BME280;22891;50.562;7.272;2022-10-31T17:50:24;100461.00;;;13.17;nan
36980;BME280;22891;50.562;7.272;2022-10-31T17:52:52;100461.00;;;13.17;nan
36980;BME280;22891;50.562;7.272;2022-10-31T18:09:16;100363.00;;;12.64;nan
36980;BME280;22891;50.562;7.272;2022-10-31T18:11:42;100361.00;;;12.68;nan
36980;BME280;22891;50.562;7.272;2022-10-31T18:14:18;100357.00;;;12.70;nan
36980;BME280;22891;50.562;7.272;2022-10-31T18:16:44;100357.00;;;12.70;nan
36980;BME280;22891;50.562;7.272;2022-10-31T18:19:12;100345.00;;;12.56;nan
36980;BME280;22891;50.562;7.272;2022-10-31T18:22:36;100340.00;;;12.60;nan
36980;BME280;22891;50.562;7.272;2022-10-31T18:27:41;100340.00;;;12.60;nan
36980;BME280;22891;50.562;7.272;2022-10-31T18:30:08;100340.00;;;12.60;nan
36980;BME280;22891;50.562;7.272;2022-10-31T18:32:34;100294.00;;;12.51;nan
36980;BME280;22891;50.562;7.272;2022-10-31T18:35:01;100273.00;;;12.48;nan
36980;BME280;22891;50.562;7.272;2022-10-31T18:37:26;100273.00;;;12.33;nan
36980;BME280;22891;50.562;7.272;2022-10-31T18:39:55;100261.00;;;12.35;nan
36980;BME280;22891;50.562;7.272;2022-10-31T18:42:21;100261.00;;;12.35;nan
36980;BME280;22891;50.562;7.272;2022-10-31T18:44:47;100240.00;;;12.60;nan
36980;BME280;22891;50.562;7.272;2022-10-31T18:47:14;100242.00;;;12.67;nan
36980;BME280;22891;50.562;7.272;2022-10-31T18:49:39;100236.00;;;12.80;nan
36980;BME280;22891;50.562;7.272;2022-10-31T18:52:05;100242.00;;;12.75;nan
36980;BME280;22891;50.562;7.272;2022-10-31T18:54:32;100236.00;;;12.81;nan
36980;BME280;22891;50.562;7.272;2022-10-31T18:56:57;100240.00;;;12.75;nan
36980;BME280;22891;50.562;7.272;2022-10-31T19:01:49;100236.00;;;12.64;nan
36980;BME280;22891;50.562;7.272;2022-10-31T19:10:22;100231.00;;;12.57;nan
36980;BME280;22891;50.562;7.272;2022-10-31T19:12:50;100222.00;;;12.52;nan
36980;BME280;22891;50.562;7.272;2022-10-31T19:15:16;100220.00;;;12.54;nan
36980;BME280;22891;50.562;7.272;2022-10-31T19:17:41;100206.00;;;12.55;nan
36980;BME280;22891;50.562;7.272;2022-10-31T19:20:08;100189.00;;;12.54;nan
36980;BME280;22891;50.562;7.272;2022-10-31T19:22:36;100204.00;;;12.44;nan
36980;BME280;22891;50.562;7.272;2022-10-31T19:25:02;100192.00;;;12.56;nan
36980;BME280;22891;50.562;7.272;2022-10-31T19:27:28;100168.00;;;12.64;nan
36980;BME280;22891;50.562;7.272;2022-10-31T19:29:54;100175.00;;;12.71;nan
36980;BME280;22891;50.562;7.272;2022-10-31T19:32:20;100163.00;;;12.93;nan
36980;BME280;22891;50.562;7.272;2022-10-31T19:34:46;100167.00;;;13.05;nan
36980;BME280;22891;50.562;7.272;2022-10-31T19:37:12;100162.00;;;13.21;nan
36980;BME280;22891;50.562;7.272;2022-10-31T19:39:38;100166.00;;;13.11;nan
36980;BME280;22891;50.562;7.272;2022-10-31T19:42:04;100162.00;;;13.18;nan
36980;BME280;22891;50.562;7.272;2022-10-31T19:44:31;100163.00;;;13.22;nan
36980;BME280;22891;50.562;7.272;2022-10-31T19:46:57;100163.00;;;13.22;nan
36980;BME280;22891;50.562;7.272;2022-10-31T19:49:24;100165.00;;;13.29;nan
36980;BME280;22891;50.562;7.272;2022-10-31T19:54:15;100172.00;;;13.32;nan
36980;BME280;22891;50.562;7.272;2022-10-31T19:56:41;100192.00;;;13.33;nan
36980;BME280;22891;50.562;7.272;2022-10-31T20:00:43;100193.00;;;13.27;nan
36980;BME280;22891;50.562;7.272;2022-10-31T20:03:09;100193.00;;;13.27;nan
36980;BME280;22891;50.562;7.272;2022-10-31T20:05:41;100196.00;;;13.29;nan
36980;BME280;22891;50.562;7.272;2022-10-31T20:11:01;100195.00;;;13.22;nan
36980;BME280;22891;50.562;7.272;2022-10-31T20:22:13;100145.00;;;13.07;nan
36980;BME280;22891;50.562;7.272;2022-10-31T20:24:39;100145.00;;;13.07;nan
36980;BME280;22891;50.562;7.272;2022-10-31T20:27:05;100157.00;;;13.11;nan
36980;BME280;22891;50.562;7.272;2022-10-31T20:29:31;100154.00;;;13.15;nan
36980;BME280;22891;50.562;7.272;2022-10-31T20:31:57;100166.00;;;13.11;nan
36980;BME280;22891;50.562;7.272;2022-10-31T20:34:23;100154.00;;;13.10;nan
36980;BME280;22891;50.562;7.272;2022-10-31T20:39:14;100159.00;;;13.09;nan
36980;BME280;22891;50.562;7.272;2022-10-31T20:41:40;100161.00;;;13.08;nan
36980;BME280;22891;50.562;7.272;2022-10-31T20:44:06;100157.00;;;13.08;nan
36980;BME280;22891;50.562;7.272;2022-10-31T20:46:32;100171.00;;;13.10;nan
36980;BME280;22891;50.562;7.272;2022-10-31T20:48:58;100169.00;;;13.06;nan
36980;BME280;22891;50.562;7.272;2022-10-31T20:53:57;100158.00;;;13.00;nan
36980;BME280;22891;50.562;7.272;2022-10-31T20:56:25;100165.00;;;12.94;nan
36980;BME280;22891;50.562;7.272;2022-10-31T21:01:24;100171.00;;;12.79;nan
36980;BME280;22891;50.562;7.272;2022-10-31T21:04:02;100159.00;;;12.85;nan
36980;BME280;22891;50.562;7.272;2022-10-31T21:06:30;100142.00;;;12.70;nan
36980;BME280;22891;50.562;7.272;2022-10-31T21:08:56;100158.00;;;12.57;nan
36980;BME280;22891;50.562;7.272;2022-10-31T21:11:24;100153.00;;;12.51;nan
36980;BME280;22891;50.562;7.272;2022-10-31T21:13:53;100143.00;;;12.50;nan
36980;BME280;22891;50.562;7.272;2022-10-31T21:21:30;100108.00;;;11.76;nan
36980;BME280;22891;50.562;7.272;2022-10-31T21:24:54;100092.00;;;11.87;nan
36980;BME280;22891;50.562;7.272;2022-10-31T21:32:44;100071.00;;;11.70;nan
36980;BME280;22891;50.562;7.272;2022-10-31T21:35:10;100071.00;;;11.70;nan
36980;BME280;22891;50.562;7.272;2022-10-31T22:07:39;99951.00;;;11.80;nan
36980;BME280;22891;50.562;7.272;2022-10-31T22:10:05;99947.00;;;11.90;nan
36980;BME280;22891;50.562;7.272;2022-10-31T22:14:57;99950.00;;;11.82;nan
36980;BME280;22891;50.562;7.272;2022-10-31T22:17:23;99937.00;;;11.90;nan
36980;BME280;22891;50.562;7.272;2022-10-31T22:19:49;99938.00;;;11.97;nan
36980;BME280;22891;50.562;7.272;2022-10-31T22:22:38;99937.00;;;12.00;nan
36980;BME280;22891;50.562;7.272;2022-10-31T22:25:05;99937.00;;;12.00;nan
36980;BME280;22891;50.562;7.272;2022-10-31T22:27:30;99930.00;;;12.02;nan
36980;BME280;22891;50.562;7.272;2022-10-31T22:29:56;99930.00;;;12.02;nan
36980;BME280;22891;50.562;7.272;2022-10-31T22:32:23;99934.00;;;11.98;nan
36980;BME280;22891;50.562;7.272;2022-10-31T22:37:17;99921.00;;;12.14;nan